sensor_id;sensor_type;location;lat;lon;timestamp;pressure;altitude;pressure_sealevel;temperature;humidity
76331;BME280;65148;51.912;15.570;2023-05-10T00:08:28;101450.35;;;11.68;54.62
76331;BME280;65148;51.912;15.570;2023-05-10T00:23:30;101437.86;;;11.52;54.64
76331;BME280;65148;51.912;15.570;2023-05-10T00:38:33;101433.52;;;11.46;54.30
76331;BME280;65148;51.912;15.570;2023-05-10T00:53:51;101409.80;;;11.42;54.95
76331;BME280;65148;51.912;15.570;2023-05-10T01:08:53;101409.28;;;11.14;55.10
76331;BME280;65148;51.912;15.570;2023-05-10T01:24:07;101404.65;;;11.05;55.96
76331;BME280;65148;51.912;15.570;2023-05-10T01:39:44;101388.86;;;10.96;56.38
76331;BME280;65148;51.912;15.570;2023-05-10T01:54:49;101394.86;;;10.78;57.27
76331;BME280;65148;51.912;15.570;2023-05-10T02:09:51;101392.39;;;10.56;58.59
76331;BME280;65148;51.912;15.570;2023-05-10T02:25:13;101377.37;;;10.39;59.66
76331;BME280;65148;51.912;15.570;2023-05-10T02:40:16;101361.84;;;10.24;60.25
76331;BME280;65148;51.912;15.570;2023-05-10T02:55:25;101377.30;;;10.13;60.97
76331;BME280;65148;51.912;15.570;2023-05-10T03:26:08;101363.57;;;9.78;63.02
76331;BME280;65148;51.912;15.570;2023-05-10T03:41:11;101353.99;;;9.65;64.25
76331;BME280;65148;51.912;15.570;2023-05-10T03:56:33;101365.12;;;9.59;65.81
76331;BME280;65148;51.912;15.570;2023-05-10T04:11:35;101362.96;;;9.66;66.50
76331;BME280;65148;51.912;15.570;2023-05-10T04:26:37;101356.74;;;9.70;67.11
76331;BME280;65148;51.912;15.570;2023-05-10T04:41:39;101338.38;;;10.13;66.29
76331;BME280;65148;51.912;15.570;2023-05-10T04:56:58;101345.27;;;10.46;65.93
76331;BME280;65148;51.912;15.570;2023-05-10T05:12:00;101332.20;;;10.98;64.62
76331;BME280;65148;51.912;15.570;2023-05-10T05:27:02;101325.79;;;11.54;63.28
76331;BME280;65148;51.912;15.570;2023-05-10T05:42:05;101315.47;;;12.05;60.43
76331;BME280;65148;51.912;15.570;2023-05-10T05:57:22;101322.11;;;12.67;59.08
76331;BME280;65148;51.912;15.570;2023-05-10T06:12:24;101329.78;;;13.28;56.98
76331;BME280;65148;51.912;15.570;2023-05-10T06:27:26;101328.59;;;13.81;55.87
76331;BME280;65148;51.912;15.570;2023-05-10T06:42:28;101324.70;;;14.25;53.59
76331;BME280;65148;51.912;15.570;2023-05-10T06:57:47;101317.79;;;14.65;52.79
76331;BME280;65148;51.912;15.570;2023-05-10T07:12:48;101322.17;;;15.12;52.41
76331;BME280;65148;51.912;15.570;2023-05-10T07:27:52;101304.13;;;15.66;50.84
76331;BME280;65148;51.912;15.570;2023-05-10T07:42:57;101311.17;;;16.08;50.72
76331;BME280;65148;51.912;15.570;2023-05-10T07:58:12;101303.89;;;16.48;48.42
76331;BME280;65148;51.912;15.570;2023-05-10T08:13:15;101296.30;;;16.98;50.00
76331;BME280;65148;51.912;15.570;2023-05-10T08:28:17;101300.77;;;17.56;47.90
76331;BME280;65148;51.912;15.570;2023-05-10T08:43:19;101286.15;;;18.12;48.59
76331;BME280;65148;51.912;15.570;2023-05-10T08:58:36;101281.53;;;18.85;44.53
76331;BME280;65148;51.912;15.570;2023-05-10T09:13:39;101280.82;;;19.44;43.27
76331;BME280;65148;51.912;15.570;2023-05-10T09:30:37;101262.93;;;19.79;43.82
76331;BME280;65148;51.912;15.570;2023-05-10T09:45:41;101270.33;;;20.50;42.87
76331;BME280;65148;51.912;15.570;2023-05-10T10:00:45;101270.67;;;20.48;41.56
76331;BME280;65148;51.912;15.570;2023-05-10T10:16:04;101256.52;;;21.07;39.18
76331;BME280;65148;51.912;15.570;2023-05-10T10:46:19;101259.34;;;21.96;37.87
76331;BME280;65148;51.912;15.570;2023-05-10T11:01:43;101228.14;;;21.59;38.28
76331;BME280;65148;51.912;15.570;2023-05-10T11:16:45;101242.31;;;22.49;37.28
76331;BME280;65148;51.912;15.570;2023-05-10T11:31:49;101236.09;;;22.40;36.16
76331;BME280;65148;51.912;15.570;2023-05-10T11:46:52;101241.45;;;22.33;36.46
76331;BME280;65148;51.912;15.570;2023-05-10T12:02:06;101251.63;;;22.29;37.24
76331;BME280;65148;51.912;15.570;2023-05-10T12:17:12;101246.05;;;21.49;37.14
76331;BME280;65148;51.912;15.570;2023-05-10T12:32:14;101249.56;;;22.82;37.57
76331;BME280;65148;51.912;15.570;2023-05-10T12:47:16;101239.33;;;22.86;35.74
76331;BME280;65148;51.912;15.570;2023-05-10T13:02:30;101240.17;;;22.58;36.95
76331;BME280;65148;51.912;15.570;2023-05-10T13:17:32;101235.18;;;23.43;35.59
76331;BME280;65148;51.912;15.570;2023-05-10T13:32:35;101225.48;;;23.37;34.88
76331;BME280;65148;51.912;15.570;2023-05-10T13:47:37;101215.07;;;23.65;33.39
76331;BME280;65148;51.912;15.570;2023-05-10T14:02:52;101216.62;;;23.82;33.50
76331;BME280;65148;51.912;15.570;2023-05-10T14:17:54;101201.27;;;23.69;32.76
76331;BME280;65148;51.912;15.570;2023-05-10T14:32:56;101201.05;;;23.77;33.00
76331;BME280;65148;51.912;15.570;2023-05-10T14:48:02;101191.17;;;23.99;33.94
76331;BME280;65148;51.912;15.570;2023-05-10T15:03:17;101198.22;;;23.58;31.90
76331;BME280;65148;51.912;15.570;2023-05-10T15:18:20;101198.62;;;23.76;32.56
76331;BME280;65148;51.912;15.570;2023-05-10T15:33:21;101210.67;;;23.13;31.48
76331;BME280;65148;51.912;15.570;2023-05-10T15:48:24;101209.72;;;22.46;33.32
76331;BME280;65148;51.912;15.570;2023-05-10T16:03:39;101224.59;;;21.86;34.43
76331;BME280;65148;51.912;15.570;2023-05-10T16:18:41;101224.52;;;22.66;34.64
76331;BME280;65148;51.912;15.570;2023-05-10T16:33:43;101223.93;;;22.88;34.22
76331;BME280;65148;51.912;15.570;2023-05-10T16:48:45;101228.09;;;22.67;33.87
76331;BME280;65148;51.912;15.570;2023-05-10T17:04:02;101246.45;;;21.75;33.99
76331;BME280;65148;51.912;15.570;2023-05-10T17:19:06;101268.74;;;21.79;35.25
76331;BME280;65148;51.912;15.570;2023-05-10T17:34:10;101276.39;;;21.58;36.09
76331;BME280;65148;51.912;15.570;2023-05-10T17:49:39;101285.35;;;21.06;36.52
76331;BME280;65148;51.912;15.570;2023-05-10T18:04:42;101305.48;;;20.82;38.08
76331;BME280;65148;51.912;15.570;2023-05-10T18:19:44;101317.63;;;20.36;39.73
76331;BME280;65148;51.912;15.570;2023-05-10T18:34:46;101326.52;;;20.00;41.07
76331;BME280;65148;51.912;15.570;2023-05-10T18:50:03;101347.59;;;19.37;43.06
76331;BME280;65148;51.912;15.570;2023-05-10T19:05:08;101374.03;;;19.00;44.23
76331;BME280;65148;51.912;15.570;2023-05-10T19:20:10;101382.64;;;18.47;47.21
76331;BME280;65148;51.912;15.570;2023-05-10T19:35:12;101389.45;;;17.75;49.84
76331;BME280;65148;51.912;15.570;2023-05-10T19:50:26;101402.44;;;17.22;50.75
76331;BME280;65148;51.912;15.570;2023-05-10T20:05:28;101406.55;;;17.33;50.61
76331;BME280;65148;51.912;15.570;2023-05-10T20:20:29;101413.05;;;17.06;52.71
76331;BME280;65148;51.912;15.570;2023-05-10T20:35:31;101414.88;;;16.38;55.45
76331;BME280;65148;51.912;15.570;2023-05-10T20:50:49;101420.72;;;15.68;58.99
76331;BME280;65148;51.912;15.570;2023-05-10T21:05:52;101420.38;;;15.10;61.62
76331;BME280;65148;51.912;15.570;2023-05-10T21:20:54;101435.25;;;14.53;64.90
76331;BME280;65148;51.912;15.570;2023-05-10T21:35:56;101433.86;;;14.13;67.85
76331;BME280;65148;51.912;15.570;2023-05-10T21:51:13;101438.99;;;13.72;70.06
76331;BME280;65148;51.912;15.570;2023-05-10T22:06:15;101435.27;;;13.34;73.14
76331;BME280;65148;51.912;15.570;2023-05-10T22:21:17;101443.98;;;13.02;73.75
76331;BME280;65148;51.912;15.570;2023-05-10T22:36:18;101455.75;;;12.63;77.28
76331;BME280;65148;51.912;15.570;2023-05-10T22:51:37;101459.44;;;12.33;78.35
76331;BME280;65148;51.912;15.570;2023-05-10T23:06:38;101478.67;;;12.08;79.63
76331;BME280;65148;51.912;15.570;2023-05-10T23:21:41;101477.88;;;11.97;81.65
76331;BME280;65148;51.912;15.570;2023-05-10T23:36:43;101480.34;;;11.94;82.52
76331;BME280;65148;51.912;15.570;2023-05-10T23:52:02;101485.28;;;11.87;82.74
